createdAt,value
2018-10-12T00:00:43.755Z,17.45
2018-10-12T00:03:17.989Z,17.41
2018-10-12T00:05:50.642Z,17.40
2018-10-12T00:08:23.100Z,17.36
2018-10-12T00:10:56.016Z,17.32
2018-10-12T00:13:29.931Z,17.25
2018-10-12T00:16:02.545Z,17.26
2018-10-12T00:18:35.365Z,17.40
2018-10-12T00:21:08.381Z,17.53
2018-10-12T00:23:40.774Z,17.55
2018-10-12T00:26:13.389Z,17.57
2018-10-12T00:28:47.058Z,17.57
2018-10-12T00:31:19.977Z,17.71
2018-10-12T00:33:53.221Z,17.80
2018-10-12T00:36:29.118Z,17.85
2018-10-12T00:39:01.862Z,17.87
2018-10-12T00:41:34.779Z,17.86
2018-10-12T00:44:08.123Z,17.89
2018-10-12T00:46:41.393Z,17.95
2018-10-12T00:49:13.987Z,18.01
2018-10-12T00:51:47.000Z,17.98
2018-10-12T00:54:19.508Z,17.98
2018-10-12T00:56:52.080Z,17.99
2018-10-12T00:59:26.361Z,17.97
2018-10-12T01:01:59.033Z,17.96
2018-10-12T01:04:31.986Z,17.89
2018-10-12T01:07:06.659Z,17.83
2018-10-12T01:09:40.492Z,17.81
2018-10-12T01:12:39.181Z,17.83
2018-10-12T01:15:13.510Z,17.90
2018-10-12T01:17:46.269Z,17.97
2018-10-12T01:20:19.720Z,18.00
2018-10-12T01:22:53.720Z,17.95
2018-10-12T01:25:26.753Z,17.89
2018-10-12T01:28:00.920Z,17.94
2018-10-12T01:30:33.501Z,18.04
2018-10-12T01:33:06.915Z,18.11
2018-10-12T01:35:40.677Z,18.09
2018-10-12T01:38:13.594Z,18.10
2018-10-12T01:40:46.334Z,18.07
2018-10-12T01:43:19.571Z,18.07
2018-10-12T01:45:53.307Z,18.09
2018-10-12T01:48:26.018Z,18.05
2018-10-12T01:51:02.566Z,18.03
2018-10-12T01:53:35.314Z,18.04
2018-10-12T01:56:08.641Z,18.08
2018-10-12T01:58:42.097Z,18.02
2018-10-12T02:01:14.764Z,17.99
2018-10-12T02:03:48.324Z,18.00
2018-10-12T02:06:21.090Z,18.00
2018-10-12T02:08:53.774Z,17.97
2018-10-12T02:11:27.584Z,17.95
2018-10-12T02:14:00.739Z,17.90
2018-10-12T02:16:36.553Z,17.84
2018-10-12T02:19:10.045Z,17.78
2018-10-12T02:21:42.889Z,17.74
2018-10-12T02:24:15.344Z,17.70
2018-10-12T02:26:47.890Z,17.71
2018-10-12T02:29:21.725Z,17.73
2018-10-12T02:31:57.478Z,17.70
2018-10-12T02:34:30.470Z,17.66
2018-10-12T02:37:03.742Z,17.62
2018-10-12T02:39:36.402Z,17.57
2018-10-12T02:42:09.069Z,17.52
2018-10-12T02:44:41.882Z,17.43
2018-10-12T02:47:14.446Z,17.34
2018-10-12T02:49:47.052Z,17.32
2018-10-12T02:52:20.017Z,17.35
2018-10-12T02:54:52.652Z,17.34
2018-10-12T02:57:25.433Z,17.33
2018-10-12T02:59:58.633Z,17.34
2018-10-12T03:02:31.400Z,17.35
2018-10-12T03:05:04.045Z,17.39
2018-10-12T03:07:37.279Z,17.42
2018-10-12T03:10:10.590Z,17.47
2018-10-12T03:12:44.652Z,17.46
2018-10-12T03:15:21.447Z,17.53
2018-10-12T03:17:54.430Z,17.52
2018-10-12T03:20:27.209Z,17.52
2018-10-12T03:23:00.190Z,17.50
2018-10-12T03:25:33.545Z,17.42
2018-10-12T03:28:29.585Z,17.36
2018-10-12T03:31:08.072Z,17.27
2018-10-12T03:33:43.045Z,17.23
2018-10-12T03:36:17.600Z,17.23
2018-10-12T03:38:50.703Z,17.20
2018-10-12T03:41:23.762Z,17.19
2018-10-12T03:43:56.661Z,17.16
2018-10-12T03:46:29.149Z,17.15
2018-10-12T03:49:01.982Z,17.14
2018-10-12T03:51:34.904Z,17.12
2018-10-12T03:54:08.080Z,17.08
2018-10-12T03:56:40.729Z,17.05
2018-10-12T03:59:14.979Z,16.99
2018-10-12T04:01:48.459Z,16.92
2018-10-12T04:04:22.736Z,16.89
2018-10-12T04:06:55.897Z,16.91
2018-10-12T04:09:29.492Z,16.97
2018-10-12T04:12:02.596Z,16.94
2018-10-12T04:14:37.534Z,16.91
2018-10-12T04:17:10.320Z,16.95
2018-10-12T04:19:43.048Z,16.91
2018-10-12T04:22:21.570Z,16.96
2018-10-12T04:24:54.428Z,16.93
2018-10-12T04:27:27.000Z,16.85
2018-10-12T04:30:04.616Z,16.82
2018-10-12T04:32:38.484Z,16.79
2018-10-12T04:35:11.131Z,16.73
2018-10-12T04:37:45.978Z,16.70
2018-10-12T04:41:16.008Z,16.71
2018-10-12T04:43:50.479Z,16.66
2018-10-12T04:46:33.812Z,16.66
2018-10-12T04:49:09.973Z,16.66
2018-10-12T04:51:55.985Z,16.66
2018-10-12T04:54:32.173Z,16.60
2018-10-12T04:57:05.965Z,16.58
2018-10-12T04:59:39.242Z,16.61
2018-10-12T05:02:12.566Z,16.64
2018-10-12T05:04:45.767Z,16.61
2018-10-12T05:07:18.860Z,16.63
2018-10-12T05:09:51.432Z,16.59
2018-10-12T05:12:25.008Z,16.57
2018-10-12T05:15:00.132Z,16.56
2018-10-12T05:17:36.362Z,16.51
2018-10-12T05:20:08.956Z,16.43
2018-10-12T05:22:42.078Z,16.39
2018-10-12T05:25:15.101Z,16.37
2018-10-12T05:27:48.253Z,16.40
2018-10-12T05:30:21.131Z,16.38
2018-10-12T05:32:54.068Z,16.36
2018-10-12T05:35:26.946Z,16.38
2018-10-12T05:37:59.647Z,16.38
2018-10-12T05:40:33.332Z,16.38
2018-10-12T05:43:08.366Z,16.37
2018-10-12T05:45:42.613Z,16.34
2018-10-12T05:48:39.812Z,16.34
2018-10-12T05:51:18.906Z,16.39
2018-10-12T05:53:53.666Z,16.44
2018-10-12T05:56:35.244Z,16.44
2018-10-12T05:59:12.301Z,16.48
2018-10-12T06:01:45.460Z,16.50
2018-10-12T06:04:19.629Z,16.54
2018-10-12T06:06:52.773Z,16.59
2018-10-12T06:09:27.265Z,16.62
2018-10-12T06:11:59.998Z,16.66
2018-10-12T06:14:33.131Z,16.69
2018-10-12T06:17:06.706Z,16.72
2018-10-12T06:19:41.156Z,16.75
2018-10-12T06:22:20.030Z,16.77
2018-10-12T06:24:52.520Z,16.84
2018-10-12T06:27:25.809Z,16.86
2018-10-12T06:29:59.115Z,16.85
2018-10-12T06:32:32.082Z,16.95
2018-10-12T06:35:05.158Z,17.03
2018-10-12T06:37:38.317Z,17.04
2018-10-12T06:40:10.955Z,17.09
2018-10-12T06:42:43.799Z,17.14
2018-10-12T06:45:16.377Z,17.20
2018-10-12T06:47:49.156Z,17.26
2018-10-12T06:50:21.719Z,17.32
2018-10-12T06:52:54.831Z,17.35
2018-10-12T06:55:27.683Z,17.40
2018-10-12T06:58:00.244Z,17.44
2018-10-12T07:00:33.389Z,17.47
2018-10-12T07:03:07.020Z,17.48
2018-10-12T07:05:40.253Z,17.52
2018-10-12T07:08:15.051Z,17.58
2018-10-12T07:10:52.687Z,17.65
2018-10-12T07:13:27.164Z,17.69
2018-10-12T07:16:00.186Z,17.78
2018-10-12T07:18:33.237Z,17.85
2018-10-12T07:21:06.659Z,17.91
2018-10-12T07:23:40.232Z,17.96
2018-10-12T07:26:15.193Z,18.01
2018-10-12T07:28:53.068Z,18.07
2018-10-12T07:31:27.366Z,18.14
2018-10-12T07:34:01.108Z,18.25
2018-10-12T07:36:33.788Z,18.32
2018-10-12T07:39:08.546Z,18.38
2018-10-12T07:41:44.802Z,18.46
2018-10-12T07:44:18.457Z,18.58
2018-10-12T07:46:51.392Z,18.76
2018-10-12T07:49:23.989Z,18.99
2018-10-12T07:51:59.205Z,19.22
2018-10-12T07:54:32.504Z,19.37
2018-10-12T07:57:12.098Z,19.39
2018-10-12T07:59:45.716Z,19.33
2018-10-12T08:02:19.162Z,19.29
2018-10-12T08:04:53.036Z,19.27
2018-10-12T08:07:26.915Z,19.22
2018-10-12T08:10:02.088Z,19.17
2018-10-12T08:12:37.799Z,19.17
2018-10-12T08:15:16.324Z,19.24
2018-10-12T08:17:49.525Z,19.30
2018-10-12T08:20:23.016Z,19.41
2018-10-12T08:22:58.844Z,19.53
2018-10-12T08:25:32.745Z,19.67
2018-10-12T08:28:07.684Z,19.77
2018-10-12T08:30:45.688Z,19.86
2018-10-12T08:33:25.399Z,19.98
2018-10-12T08:35:59.872Z,20.14
2018-10-12T08:38:35.971Z,20.34
2018-10-12T08:41:10.872Z,20.51
2018-10-12T08:43:44.368Z,20.78
2018-10-12T08:46:17.351Z,21.05
2018-10-12T08:48:52.036Z,21.30
2018-10-12T08:51:25.004Z,21.72
2018-10-12T08:53:57.680Z,22.34
2018-10-12T08:56:32.458Z,22.52
2018-10-12T08:59:05.473Z,22.30
2018-10-12T09:01:38.041Z,22.04
2018-10-12T09:04:12.424Z,21.88
2018-10-12T09:06:46.139Z,21.64
2018-10-12T09:09:18.873Z,21.50
2018-10-12T09:11:51.815Z,21.43
2018-10-12T09:14:25.674Z,21.38
2018-10-12T09:17:00.518Z,21.43
2018-10-12T09:19:34.093Z,21.91
2018-10-12T09:22:07.709Z,22.18
2018-10-12T09:24:40.241Z,22.14
2018-10-12T09:27:14.809Z,22.27
2018-10-12T09:29:47.558Z,22.36
2018-10-12T09:32:20.154Z,22.24
2018-10-12T09:34:54.570Z,22.05
2018-10-12T09:37:28.910Z,21.86
2018-10-12T09:40:02.462Z,21.67
2018-10-12T09:42:35.198Z,21.52
2018-10-12T09:45:09.993Z,21.40
2018-10-12T09:47:45.221Z,21.32
2018-10-12T09:50:18.544Z,21.42
2018-10-12T09:52:52.735Z,21.42
2018-10-12T09:55:30.061Z,21.32
2018-10-12T09:58:06.240Z,21.25
2018-10-12T10:00:46.012Z,21.55
2018-10-12T10:03:24.088Z,22.12
2018-10-12T10:06:00.365Z,22.80
2018-10-12T10:08:36.700Z,23.29
2018-10-12T10:11:10.063Z,23.68
2018-10-12T10:13:46.791Z,24.11
2018-10-12T10:16:21.705Z,24.16
2018-10-12T10:18:55.225Z,24.31
2018-10-12T10:21:30.425Z,24.45
2018-10-12T10:24:03.527Z,24.59
2018-10-12T10:26:38.445Z,24.80
2018-10-12T10:29:12.552Z,24.87
2018-10-12T10:31:46.966Z,25.11
2018-10-12T10:34:21.875Z,25.34
2018-10-12T10:36:54.573Z,25.66
2018-10-12T10:39:28.499Z,25.76
2018-10-12T10:42:01.260Z,26.10
2018-10-12T10:44:35.097Z,26.39
2018-10-12T10:47:09.528Z,26.52
2018-10-12T10:49:42.356Z,26.59
2018-10-12T10:52:15.106Z,26.65
2018-10-12T10:54:53.158Z,26.67
2018-10-12T10:57:25.909Z,26.77
2018-10-12T10:59:59.661Z,26.75
2018-10-12T11:02:35.784Z,26.65
2018-10-12T11:05:10.445Z,26.77
2018-10-12T11:07:50.385Z,26.99
2018-10-12T11:10:24.264Z,27.07
2018-10-12T11:12:59.734Z,27.11
2018-10-12T11:15:33.750Z,27.01
2018-10-12T11:18:08.473Z,26.89
2018-10-12T11:20:41.293Z,26.83
2018-10-12T11:23:16.986Z,26.75
2018-10-12T11:25:59.161Z,26.65
2018-10-12T11:28:31.937Z,26.68
2018-10-12T11:31:07.277Z,26.57
2018-10-12T11:33:41.559Z,26.53
2018-10-12T11:36:15.146Z,26.68
2018-10-12T11:38:47.966Z,26.83
2018-10-12T11:41:21.192Z,26.92
2018-10-12T11:43:53.903Z,27.10
2018-10-12T11:46:28.466Z,27.20
2018-10-12T11:49:02.305Z,27.39
2018-10-12T11:51:35.876Z,27.47
2018-10-12T11:54:12.117Z,27.50
2018-10-12T11:56:51.691Z,27.71
2018-10-12T11:59:28.715Z,27.83
2018-10-12T12:02:03.337Z,27.76
2018-10-12T12:04:36.672Z,27.76
2018-10-12T12:07:11.194Z,27.59
2018-10-12T12:09:45.585Z,27.38
2018-10-12T12:12:19.597Z,27.39
2018-10-12T12:14:54.566Z,27.45
2018-10-12T12:17:27.791Z,27.38
2018-10-12T12:20:02.871Z,27.22
2018-10-12T12:22:40.435Z,26.95
2018-10-12T12:25:17.284Z,26.95
2018-10-12T12:27:50.634Z,27.04
2018-10-12T12:30:23.244Z,27.03
2018-10-12T12:32:57.968Z,27.09
2018-10-12T12:35:31.195Z,27.33
2018-10-12T12:38:03.428Z,27.42
2018-10-12T12:40:36.941Z,27.35
2018-10-12T12:43:10.633Z,27.30
2018-10-12T12:45:43.946Z,27.35
2018-10-12T12:48:18.755Z,27.58
2018-10-12T12:50:51.912Z,27.67
2018-10-12T12:53:32.606Z,27.94
2018-10-12T12:56:05.156Z,28.01
2018-10-12T12:58:39.084Z,28.04
2018-10-12T13:01:11.781Z,28.22
2018-10-12T13:03:44.792Z,28.42
2018-10-12T13:06:18.149Z,28.50
2018-10-12T13:08:50.788Z,28.38
2018-10-12T13:11:24.195Z,28.08
2018-10-12T13:13:57.214Z,28.03
2018-10-12T13:16:31.217Z,28.11
2018-10-12T13:19:03.874Z,28.30
2018-10-12T13:21:40.619Z,28.46
2018-10-12T13:24:16.432Z,28.58
2018-10-12T13:26:52.648Z,28.60
2018-10-12T13:29:29.433Z,28.71
2018-10-12T13:32:03.524Z,28.85
2018-10-12T13:34:37.281Z,28.79
2018-10-12T13:37:10.836Z,28.70
2018-10-12T13:39:46.167Z,28.44
2018-10-12T13:42:19.453Z,28.29
2018-10-12T13:44:53.699Z,28.29
2018-10-12T13:47:28.452Z,28.27
2018-10-12T13:50:01.534Z,28.09
2018-10-12T13:52:37.855Z,28.08
2018-10-12T13:55:18.137Z,28.02
2018-10-12T13:57:50.878Z,28.00
2018-10-12T14:00:24.433Z,28.04
2018-10-12T14:02:57.608Z,28.13
2018-10-12T14:05:34.397Z,28.05
2018-10-12T14:08:07.376Z,28.06
2018-10-12T14:10:40.291Z,28.08
2018-10-12T14:13:12.898Z,28.22
2018-10-12T14:15:47.150Z,28.25
2018-10-12T14:18:23.926Z,28.28
2018-10-12T14:21:04.766Z,28.33
2018-10-12T14:23:38.582Z,28.41
2018-10-12T14:26:14.095Z,28.43
2018-10-12T14:28:47.665Z,28.41
2018-10-12T14:31:24.431Z,28.52
2018-10-12T14:33:56.911Z,28.38
2018-10-12T14:36:31.141Z,28.07
2018-10-12T14:39:07.228Z,27.99
2018-10-12T14:41:45.111Z,27.97
2018-10-12T14:44:20.041Z,28.00
2018-10-12T14:46:53.409Z,28.09
2018-10-12T14:49:30.579Z,28.23
2018-10-12T14:52:05.939Z,28.26
2018-10-12T14:54:40.455Z,28.17
2018-10-12T14:57:19.820Z,28.11
2018-10-12T14:59:54.200Z,28.05
2018-10-12T15:02:27.485Z,28.05
2018-10-12T15:05:02.358Z,27.97
2018-10-12T15:07:36.141Z,28.04
2018-10-12T15:10:10.848Z,28.06
2018-10-12T15:12:45.736Z,28.05
2018-10-12T15:15:27.349Z,28.08
2018-10-12T15:18:03.098Z,28.15
2018-10-12T15:20:36.893Z,28.26
2018-10-12T15:23:11.912Z,28.28
2018-10-12T15:25:46.899Z,28.25
2018-10-12T15:28:20.465Z,28.21
2018-10-12T15:30:55.892Z,28.16
2018-10-12T15:33:32.078Z,27.98
2018-10-12T15:36:05.565Z,27.92
2018-10-12T15:38:41.394Z,27.87
2018-10-12T15:41:16.475Z,27.87
2018-10-12T15:43:52.190Z,27.79
2018-10-12T15:46:25.499Z,27.66
2018-10-12T15:48:59.708Z,27.58
2018-10-12T15:51:32.421Z,27.42
2018-10-12T15:54:11.334Z,27.11
2018-10-12T15:56:45.860Z,26.86
2018-10-12T15:59:20.757Z,26.57
2018-10-12T16:01:55.987Z,26.34
2018-10-12T16:04:28.854Z,26.11
2018-10-12T16:07:05.661Z,25.91
2018-10-12T16:09:39.344Z,25.75
2018-10-12T16:12:12.510Z,25.58
2018-10-12T16:14:46.868Z,25.44
2018-10-12T16:17:20.895Z,25.27
2018-10-12T16:19:55.016Z,25.15
2018-10-12T16:22:27.700Z,25.04
2018-10-12T16:25:22.385Z,24.92
2018-10-12T16:27:56.776Z,24.83
2018-10-12T16:30:29.520Z,24.74
2018-10-12T16:33:04.356Z,24.62
2018-10-12T16:35:39.905Z,24.51
2018-10-12T16:38:14.460Z,24.39
2018-10-12T16:40:47.455Z,24.27
2018-10-12T16:43:21.078Z,24.16
2018-10-12T16:45:54.700Z,24.03
2018-10-12T16:48:30.611Z,23.93
2018-10-12T16:51:06.429Z,23.80
2018-10-12T16:53:42.349Z,23.69
2018-10-12T16:56:15.779Z,23.58
2018-10-12T16:58:50.710Z,23.51
2018-10-12T17:01:28.120Z,23.39
2018-10-12T17:04:00.970Z,23.28
2018-10-12T17:06:34.101Z,23.22
2018-10-12T17:09:10.566Z,23.16
2018-10-12T17:11:46.470Z,23.12
2018-10-12T17:14:21.778Z,23.08
2018-10-12T17:16:58.495Z,23.00
2018-10-12T17:19:32.156Z,22.94
2018-10-12T17:22:05.358Z,22.88
2018-10-12T17:24:40.577Z,22.88
2018-10-12T17:27:19.179Z,22.88
2018-10-12T17:29:54.598Z,22.88
2018-10-12T17:32:31.580Z,22.83
2018-10-12T17:35:04.554Z,22.77
2018-10-12T17:37:37.305Z,22.70
2018-10-12T17:40:10.439Z,22.64
2018-10-12T17:42:44.134Z,22.54
2018-10-12T17:45:21.796Z,22.49
2018-10-12T17:47:59.007Z,22.45
2018-10-12T17:50:33.922Z,22.38
2018-10-12T17:53:07.900Z,22.35
2018-10-12T17:55:41.421Z,22.30
2018-10-12T17:58:15.166Z,22.22
2018-10-12T18:00:58.518Z,22.17
2018-10-12T18:03:31.060Z,22.06
2018-10-12T18:16:18.368Z,21.86
2018-10-12T18:18:52.584Z,21.79
2018-10-12T18:21:27.169Z,21.73
2018-10-12T18:24:00.452Z,21.66
2018-10-12T18:26:35.658Z,21.62
2018-10-12T18:29:12.057Z,21.55
2018-10-12T18:31:47.648Z,21.46
2018-10-12T18:34:23.532Z,21.44
2018-10-12T18:37:02.509Z,21.38
2018-10-12T18:39:41.470Z,21.32
2018-10-12T18:42:14.195Z,21.26
2018-10-12T18:44:47.623Z,21.22
2018-10-12T18:47:24.381Z,21.18
2018-10-12T18:50:00.633Z,21.12
2018-10-12T18:52:34.379Z,21.07
2018-10-12T18:55:18.762Z,21.07
2018-10-12T18:57:52.830Z,21.05
2018-10-12T19:00:29.707Z,21.01
2018-10-12T19:03:03.076Z,20.99
2018-10-12T19:05:37.697Z,20.96
2018-10-12T19:08:12.748Z,20.93
2018-10-12T19:10:47.757Z,20.95
2018-10-12T19:13:22.233Z,20.92
2018-10-12T19:15:57.042Z,20.92
2018-10-12T19:18:30.572Z,20.88
2018-10-12T19:21:15.297Z,20.85
2018-10-12T19:23:52.703Z,20.83
2018-10-12T19:26:35.283Z,20.89
2018-10-12T19:29:11.384Z,20.95
2018-10-12T19:31:52.596Z,20.95
2018-10-12T19:34:37.733Z,20.94
2018-10-12T19:37:19.893Z,20.97
2018-10-12T19:39:57.371Z,20.97
2018-10-12T19:42:33.229Z,20.94
2018-10-12T19:45:16.553Z,20.90
2018-10-12T19:47:53.743Z,20.85
2018-10-12T19:50:31.268Z,20.87
2018-10-12T19:53:05.898Z,20.87
2018-10-12T19:55:40.568Z,20.86
2018-10-12T19:58:16.022Z,20.83
2018-10-12T20:00:52.408Z,20.78
2018-10-12T20:03:25.830Z,20.71
2018-10-12T20:06:01.837Z,20.67
2018-10-12T20:08:54.696Z,20.63
2018-10-12T20:11:28.586Z,20.60
2018-10-12T20:14:08.191Z,20.59
2018-10-12T20:16:42.062Z,20.59
2018-10-12T20:19:15.875Z,20.55
2018-10-12T20:21:55.533Z,20.55
2018-10-12T20:24:29.039Z,20.54
2018-10-12T20:27:01.825Z,20.52
2018-10-12T20:29:38.055Z,20.48
2018-10-12T20:32:13.326Z,20.46
2018-10-12T20:34:50.903Z,20.47
2018-10-12T20:37:28.297Z,20.51
2018-10-12T20:40:13.863Z,20.46
2018-10-12T20:42:49.956Z,20.42
2018-10-12T20:45:24.682Z,20.43
2018-10-12T20:48:02.578Z,20.40
2018-10-12T20:50:37.380Z,20.37
2018-10-12T20:53:11.022Z,20.37
2018-10-12T20:55:46.633Z,20.39
2018-10-12T20:58:23.298Z,20.38
2018-10-12T21:00:57.261Z,20.34
2018-10-12T21:03:30.118Z,20.32
2018-10-12T21:06:03.625Z,20.29
2018-10-12T21:08:38.561Z,20.31
2018-10-12T21:11:12.017Z,20.32
2018-10-12T21:13:46.592Z,20.29
2018-10-12T21:16:21.646Z,20.25
2018-10-12T21:18:55.376Z,20.28
2018-10-12T21:21:28.718Z,20.36
2018-10-12T21:24:10.380Z,20.44
2018-10-12T21:26:44.030Z,20.53
2018-10-12T21:29:18.871Z,20.61
2018-10-12T21:31:52.728Z,20.68
2018-10-12T21:34:26.686Z,20.72
2018-10-12T21:37:01.041Z,20.75
2018-10-12T21:39:34.609Z,20.77
2018-10-12T21:42:10.043Z,20.80
2018-10-12T21:44:45.301Z,20.82
2018-10-12T21:47:19.669Z,20.86
2018-10-12T21:49:55.607Z,20.89
2018-10-12T21:52:31.104Z,20.93
2018-10-12T21:55:06.694Z,20.98
2018-10-12T21:57:39.650Z,20.97
2018-10-12T22:00:15.969Z,20.98
2018-10-12T22:02:52.201Z,21.00
2018-10-12T22:05:25.260Z,21.02
2018-10-12T22:07:59.119Z,21.02
2018-10-12T22:10:32.573Z,21.06
2018-10-12T22:13:05.714Z,21.18
2018-10-12T22:15:38.409Z,21.27
2018-10-12T22:18:11.478Z,21.29
2018-10-12T22:20:44.560Z,21.28
2018-10-12T22:23:17.890Z,21.28
2018-10-12T22:25:50.544Z,21.23
2018-10-12T22:28:24.523Z,21.20
2018-10-12T22:30:59.640Z,21.15
2018-10-12T22:33:33.774Z,21.10
2018-10-12T22:36:06.735Z,21.07
2018-10-12T22:38:42.668Z,21.08
2018-10-12T22:41:15.383Z,21.09
2018-10-12T22:43:49.219Z,21.02
2018-10-12T22:46:25.958Z,20.99
2018-10-12T22:48:59.507Z,20.97
2018-10-12T22:51:33.585Z,20.94
2018-10-12T22:54:06.452Z,20.94
2018-10-12T22:56:39.212Z,20.97
2018-10-12T22:59:12.972Z,20.99
2018-10-12T23:01:49.305Z,20.96
2018-10-12T23:04:22.452Z,20.96
2018-10-12T23:06:57.600Z,20.98
2018-10-12T23:09:30.337Z,20.95
2018-10-12T23:12:03.029Z,20.98
2018-10-12T23:14:38.006Z,20.95
2018-10-12T23:17:10.904Z,20.83
2018-10-12T23:19:43.542Z,20.77
2018-10-12T23:22:18.526Z,20.70
2018-10-12T23:24:50.343Z,20.69
2018-10-12T23:27:24.883Z,20.69
2018-10-12T23:30:03.032Z,20.70
2018-10-12T23:32:36.877Z,20.70
2018-10-12T23:35:11.114Z,20.68
2018-10-12T23:37:47.162Z,20.62
2018-10-12T23:40:19.964Z,20.54
2018-10-12T23:42:54.921Z,20.51
2018-10-12T23:45:29.802Z,20.46
2018-10-12T23:48:02.772Z,20.43
2018-10-12T23:50:36.075Z,20.41
2018-10-12T23:53:09.163Z,20.36
2018-10-12T23:55:42.300Z,20.30
2018-10-12T23:58:16.729Z,20.18
